Time;durP1;ratioP1;P1;durP2;ratioP2;P2;SDS_P1;SDS_P2;PMS_P1;PMS_P2;Temp;Humidity;BMP_temperature;BMP_pressure;BME280_temperature;BME280_humidity;BME280_pressure;Samples;Min_cycle;Max_cycle;Signal;HPM_P1;HPM_P2
2023/10/09 00:01:25;;;;;;;6.57;3.30;;;;;;;15.73;94.65;102164.88;4975858;28;96669;-28
2023/10/09 00:03:53;;;;;;;8.38;3.67;;;;;;;15.77;94.77;102170.06;4976170;28;96902;-28
2023/10/09 00:06:30;;;;;;;6.50;3.80;;;;;;;15.78;95.00;102170.91;4975252;28;99598;-28
2023/10/09 00:08:56;;;;;;;8.27;3.53;;;;;;;15.78;95.00;102168.19;4976584;28;99319;-28
2023/10/09 00:11:26;;;;;;;7.28;3.72;;;;;;;15.77;94.68;102161.84;4974979;28;96654;-28
2023/10/09 00:13:57;;;;;;;11.32;3.35;;;;;;;15.80;94.75;102174.44;4975354;28;96709;-28
2023/10/09 00:16:24;;;;;;;7.20;2.90;;;;;;;15.77;94.83;102163.72;4976546;28;100053;-28
2023/10/09 00:18:53;;;;;;;7.50;3.17;;;;;;;15.75;94.85;102163.78;4975116;28;101660;-30
2023/10/09 00:21:23;;;;;;;10.85;3.42;;;;;;;15.73;94.88;102159.41;4975051;28;96692;-28
2023/10/09 00:23:59;;;;;;;6.82;2.97;;;;;;;15.76;95.32;102162.84;4976671;28;96969;-28
2023/10/09 00:26:25;;;;;;;5.88;3.00;;;;;;;15.74;95.23;102159.31;4974846;28;101291;-28
2023/10/09 00:28:51;;;;;;;5.72;3.15;;;;;;;15.75;94.71;102152.00;4975196;28;100842;-28
2023/10/09 00:31:29;;;;;;;6.95;2.97;;;;;;;15.75;94.80;102161.06;4976624;28;96550;-29
2023/10/09 00:33:55;;;;;;;6.60;2.72;;;;;;;15.71;94.71;102149.47;4975117;28;97374;-28
2023/10/09 00:36:28;;;;;;;5.53;2.53;;;;;;;15.78;94.74;102144.50;4975752;28;98066;-28
2023/10/09 00:38:54;;;;;;;6.45;2.83;;;;;;;15.77;94.94;102150.06;4974716;28;100988;-28
2023/10/09 00:41:24;;;;;;;6.90;3.17;;;;;;;15.82;94.86;102139.72;4976513;28;96547;-28
2023/10/09 00:43:51;;;;;;;6.15;2.72;;;;;;;15.77;94.40;102137.25;4976301;28;96824;-28
2023/10/09 00:48:47;;;;;;;7.18;2.53;;;;;;;15.81;95.04;102148.91;4976041;28;97832;-28
2023/10/09 00:51:17;;;;;;;4.60;2.42;;;;;;;15.81;95.01;102143.44;4976261;28;96775;-28
2023/10/09 00:53:45;;;;;;;5.28;2.83;;;;;;;15.83;95.10;102150.56;4975608;28;96953;-27
2023/10/09 00:56:19;;;;;;;6.03;2.20;;;;;;;15.79;94.96;102143.50;4976045;28;97210;-28
2023/10/09 00:58:46;;;;;;;4.32;2.30;;;;;;;15.79;95.27;102145.38;4974387;28;101331;-29
2023/10/09 01:01:16;;;;;;;5.15;2.55;;;;;;;15.84;95.32;102148.69;4975559;28;96618;-29
2023/10/09 01:03:43;;;;;;;5.07;2.58;;;;;;;15.82;94.97;102146.03;4974737;28;97049;-29
2023/10/09 01:11:10;;;;;;;5.78;2.28;;;;;;;15.82;95.20;102135.13;4975959;28;96574;-31
2023/10/09 01:16:17;;;;;;;3.90;2.20;;;;;;;15.82;95.19;102129.66;4973995;28;97892;-28
2023/10/09 01:18:44;;;;;;;3.15;1.98;;;;;;;15.81;95.33;102122.44;4976350;28;97259;-28
2023/10/09 01:21:14;;;;;;;3.53;2.17;;;;;;;15.81;95.64;102113.38;4974350;28;96688;-28
2023/10/09 01:24:31;;;;;;;2.65;1.63;;;;;;;15.84;95.60;102115.91;4976006;28;96706;-29
2023/10/09 01:26:39;;;;;;;5.30;2.25;;;;;;;15.86;96.06;102109.38;4970440;28;97296;-28
2023/10/09 01:29:16;;;;;;;5.13;2.40;;;;;;;15.87;95.53;102107.50;4974055;28;101332;-28
2023/10/09 01:32:00;;;;;;;6.07;2.20;;;;;;;15.88;95.52;102112.88;4975751;28;96470;-27
2023/10/09 01:34:44;;;;;;;4.00;2.08;;;;;;;15.89;95.47;102109.16;4975863;28;96557;-28
2023/10/09 01:37:15;;;;;;;6.88;2.17;;;;;;;15.88;95.60;102093.75;4975201;28;99874;-28
2023/10/09 01:39:41;;;;;;;4.20;1.98;;;;;;;15.87;95.81;102096.56;4975599;28;97354;-29
2023/10/09 01:42:07;;;;;;;6.28;2.38;;;;;;;15.88;95.84;102084.69;4974244;28;96536;-28
2023/10/09 01:44:42;;;;;;;5.07;2.28;;;;;;;15.89;95.76;102087.28;4973316;28;96855;-29
2023/10/09 01:47:09;;;;;;;3.80;1.90;;;;;;;15.87;96.03;102081.09;4975270;28;98219;-28
2023/10/09 01:49:37;;;;;;;8.20;2.25;;;;;;;15.86;96.17;102086.63;4973850;28;100933;-28
2023/10/09 01:52:09;;;;;;;3.75;2.05;;;;;;;15.90;96.00;102083.59;4973446;28;96618;-28
2023/10/09 01:54:37;;;;;;;4.85;2.00;;;;;;;15.87;96.07;102078.34;4975278;28;96712;-28
2023/10/09 01:57:13;;;;;;;4.70;2.28;;;;;;;15.93;96.20;102086.13;4974936;28;99440;-28
2023/10/09 01:59:47;;;;;;;4.13;1.85;;;;;;;15.87;96.23;102072.88;4974904;28;99390;-28
2023/10/09 02:02:25;;;;;;;5.43;2.00;;;;;;;15.91;96.03;102079.88;4974050;28;96683;-29
2023/10/09 02:05:23;;;;;;;4.93;2.35;;;;;;;15.95;96.10;102079.72;4974958;28;96662;-28
2023/10/09 02:07:51;;;;;;;2.97;1.90;;;;;;;15.85;96.55;102072.09;4973317;28;99321;-28
2023/10/09 02:10:25;;;;;;;4.65;2.25;;;;;;;15.96;96.23;102081.44;4975257;28;97842;-29
2023/10/09 02:12:57;;;;;;;5.50;2.15;;;;;;;15.94;96.37;102076.06;4975451;28;96698;-29
2023/10/09 02:15:51;;;;;;;9.88;2.60;;;;;;;15.99;96.46;102073.91;4973763;28;96752;-28
2023/10/09 02:21:12;;;;;;;4.20;2.00;;;;;;;15.94;96.43;102062.41;4972987;28;97781;-28
2023/10/09 02:23:49;;;;;;;5.28;2.10;;;;;;;16.02;96.22;102073.75;4975238;28;96631;-28
2023/10/09 02:26:23;;;;;;;7.88;2.30;;;;;;;16.01;96.15;102069.22;4974661;28;96708;-28
2023/10/09 02:28:58;;;;;;;5.15;2.22;;;;;;;15.97;96.53;102058.59;4974689;28;99689;-28
2023/10/09 02:31:26;;;;;;;4.47;2.33;;;;;;;15.96;96.19;102059.59;4974545;28;99266;-29
2023/10/09 02:33:55;;;;;;;5.28;2.30;;;;;;;15.94;96.79;102062.41;4973464;28;96673;-28
2023/10/09 02:36:24;;;;;;;6.88;2.28;;;;;;;15.98;96.77;102065.84;4974025;28;96490;-28
2023/10/09 02:38:53;;;;;;;4.72;1.88;;;;;;;15.97;96.86;102067.69;4974360;28;98634;-28
2023/10/09 02:41:20;;;;;;;5.28;2.88;;;;;;;15.98;97.11;102068.56;4973037;28;100803;-28
2023/10/09 02:43:47;;;;;;;4.38;1.88;;;;;;;16.01;96.91;102074.69;4972568;28;96806;-28
2023/10/09 02:46:20;;;;;;;7.10;2.53;;;;;;;16.02;97.27;102068.28;4973008;28;96929;-28
2023/10/09 02:48:52;;;;;;;3.58;2.00;;;;;;;16.04;96.97;102063.59;4974453;28;98377;-28
2023/10/09 02:53:55;;;;;;;5.25;2.00;;;;;;;16.06;97.04;102068.94;4972733;28;96562;-28
2023/10/09 02:59:07;;;;;;;4.45;2.20;;;;;;;16.08;97.47;102058.78;4973357;28;97941;-28
2023/10/09 03:01:38;;;;;;;5.10;1.98;;;;;;;16.07;97.45;102049.72;4973129;28;100702;-28
2023/10/09 03:04:05;;;;;;;3.72;2.03;;;;;;;16.07;97.30;102049.72;5006640;28;96625;-28
2023/10/09 03:06:35;;;;;;;6.28;1.75;;;;;;;16.08;97.73;102053.31;4973363;28;96821;-28
2023/10/09 03:09:16;;;;;;;8.07;2.42;;;;;;;16.11;97.54;102062.22;4972362;28;101486;-28
2023/10/09 03:11:42;;;;;;;5.57;2.15;;;;;;;16.12;97.26;102050.28;4974210;28;98856;-29
2023/10/09 03:14:08;;;;;;;4.50;2.40;;;;;;;16.12;97.64;102043.94;4972899;28;96718;-28
2023/10/09 03:16:33;;;;;;;6.88;2.20;;;;;;;16.12;98.08;102038.47;4975365;28;96823;-28
2023/10/09 03:18:59;;;;;;;5.45;2.50;;;;;;;16.13;97.68;102038.34;4977685;28;98049;-28
2023/10/09 03:21:25;;;;;;;4.15;2.20;;;;;;;16.16;98.20;102041.88;4976057;28;100878;-28
2023/10/09 03:23:50;;;;;;;8.40;2.05;;;;;;;16.13;98.88;102032.03;4977677;28;96581;-28
2023/10/09 03:26:19;;;;;;;3.65;2.03;;;;;;;16.16;98.55;102037.31;4978165;28;96783;-28
2023/10/09 03:28:47;;;;;;;5.55;2.20;;;;;;;16.18;98.99;102035.31;4976909;28;99294;-28
2023/10/09 03:31:13;;;;;;;5.70;2.50;;;;;;;16.16;98.72;102028.19;4975902;28;100789;-28
2023/10/09 03:33:39;;;;;;;5.47;2.47;;;;;;;16.14;98.70;102021.00;4977123;28;96658;-28
2023/10/09 03:36:09;;;;;;;5.95;2.22;;;;;;;16.18;98.26;102023.50;4976092;28;96741;-28
2023/10/09 03:38:38;;;;;;;8.73;2.55;;;;;;;16.18;98.51;102038.06;4975748;28;101381;-28
2023/10/09 03:41:09;;;;;;;5.15;2.22;;;;;;;16.21;98.10;102056.09;4975689;28;100829;-28
2023/10/09 03:43:42;;;;;;;5.20;2.40;;;;;;;16.19;98.16;102058.09;4976981;28;96879;-28
2023/10/09 03:46:33;;;;;;;8.75;2.55;;;;;;;16.25;97.99;102076.81;4976804;28;96738;-28
2023/10/09 03:49:00;;;;;;;6.85;2.60;;;;;;;16.24;98.19;102078.66;4976934;28;98459;-28
2023/10/09 03:51:29;;;;;;;3.80;2.08;;;;;;;16.27;97.95;102088.53;4977480;28;97807;-28
2023/10/09 03:53:54;;;;;;;8.25;3.05;;;;;;;16.26;98.35;102082.19;4975727;28;96764;-28
2023/10/09 03:56:21;;;;;;;7.13;2.53;;;;;;;16.22;98.06;102079.75;4977035;28;96840;-28
2023/10/09 03:58:50;;;;;;;4.90;2.42;;;;;;;16.22;98.23;102071.56;4974956;28;99039;-28
2023/10/09 04:01:39;;;;;;;4.38;2.55;;;;;;;16.27;98.31;102074.84;4975402;28;100939;-28
2023/10/09 04:04:06;;;;;;;8.70;2.53;;;;;;;16.22;98.35;102061.47;4976852;28;96685;-29
2023/10/09 04:06:33;;;;;;;4.55;2.33;;;;;;;16.26;98.58;102062.19;4975562;28;96908;-28
2023/10/09 04:11:56;;;;;;;7.13;2.88;;;;;;;16.25;98.09;102061.28;4975620;28;97357;-28
2023/10/09 04:14:32;;;;;;;4.15;2.15;;;;;;;16.24;98.30;102069.59;4975616;28;96634;-28
2023/10/09 04:17:05;;;;;;;4.30;2.47;;;;;;;16.25;98.95;102071.34;4975941;28;96579;-28
2023/10/09 04:19:38;;;;;;;4.85;2.47;;;;;;;16.27;98.77;102066.66;4975112;28;101851;-28
2023/10/09 04:22:07;;;;;;;4.30;2.53;;;;;;;16.29;98.82;102057.38;4975098;28;100962;-28
2023/10/09 04:24:41;;;;;;;7.20;2.30;;;;;;;16.33;98.51;102044.38;4974839;28;96680;-28
2023/10/09 04:27:08;;;;;;;7.85;2.60;;;;;;;16.36;98.39;102027.75;4990588;28;96777;-28
2023/10/09 04:29:39;;;;;;;5.45;2.50;;;;;;;16.40;98.45;102029.31;4991427;28;101206;-28
2023/10/09 04:32:15;;;;;;;5.05;1.95;;;;;;;16.34;97.67;102027.84;4974953;28;99349;-28
2023/10/09 04:34:48;;;;;;;5.40;2.80;;;;;;;16.40;97.94;102029.31;4976437;28;96526;-28
2023/10/09 04:42:37;;;;;;;6.20;2.47;;;;;;;16.45;98.11;102046.28;4956540;28;97246;-28
2023/10/09 04:47:36;;;;;;;5.10;2.53;;;;;;;16.47;98.00;102052.53;4975760;28;96563;-28
2023/10/09 05:00:35;;;;;;;5.45;2.42;;;;;;;16.45;98.47;102062.69;4975343;28;97895;-28
2023/10/09 05:03:04;;;;;;;7.45;2.17;;;;;;;16.46;98.19;102072.66;4975510;28;98870;-29
2023/10/09 05:08:28;;;;;;;6.50;2.58;;;;;;;16.42;98.02;102060.19;4975448;28;97311;-28
2023/10/09 05:16:18;;;;;;;10.43;2.72;;;;;;;16.44;98.25;102091.00;4974119;28;96617;-28
2023/10/09 05:18:45;;;;;;;4.07;2.40;;;;;;;16.44;98.88;102081.94;4974529;28;96748;-28
2023/10/09 05:32:27;;;;;;;5.40;2.47;;;;;;;16.56;98.75;102094.78;4972866;28;97359;-28
2023/10/09 05:37:26;;;;;;;5.40;2.20;;;;;;;16.57;98.24;102077.41;4975051;28;96625;-28
2023/10/09 05:47:53;;;;;;;7.23;2.80;;;;;;;16.68;98.43;102098.56;4974664;28;96646;-28
2023/10/09 05:50:34;;;;;;;4.88;2.25;;;;;;;16.60;98.25;102062.66;4972800;28;96640;-28
2023/10/09 05:53:17;;;;;;;4.35;2.17;;;;;;;16.67;97.74;102075.81;4973713;28;101241;-28
2023/10/09 06:03:16;;;;;;;8.52;2.60;;;;;;;16.64;97.81;102054.13;4975994;28;96557;-28
2023/10/09 06:04:17;;;;;;;5.47;2.17;;;;;;;16.70;97.73;102066.50;4973229;28;98820;-34
2023/10/09 06:06:55;;;;;;;5.07;2.40;;;;;;;16.71;97.56;102054.59;4971129;28;100988;-28
2023/10/09 06:24:19;;;;;;;6.57;2.40;;;;;;;16.77;98.28;102043.22;4972477;28;98232;-28
2023/10/09 06:27:24;;;;;;;9.00;3.22;;;;;;;16.78;98.40;102034.03;4973590;28;100991;-28
2023/10/09 06:45:55;;;;;;;6.63;2.47;;;;;;;16.78;97.97;102096.97;4973938;28;98079;-28
2023/10/09 06:51:40;;;;;;;7.03;2.75;;;;;;;16.73;98.58;102091.81;4974827;28;96701;-28
2023/10/09 07:01:47;;;;;;;6.63;3.25;;;;;;;16.76;98.54;102098.94;4977880;28;96700;-28
2023/10/09 07:04:19;;;;;;;5.27;2.67;;;;;;;16.78;98.40;102094.25;4978062;28;96752;-28
2023/10/09 07:06:50;;;;;;;7.00;3.22;;;;;;;16.83;98.58;102119.47;4976313;28;101226;-28
2023/10/09 07:09:19;;;;;;;9.07;3.72;;;;;;;16.81;98.52;102113.22;4976201;28;101161;-28
2023/10/09 07:24:58;;;;;;;5.47;2.38;;;;;;;16.99;98.66;102064.53;4977930;28;96878;-28
2023/10/09 07:27:43;;;;;;;9.43;2.90;;;;;;;17.03;98.25;102074.28;4977134;28;98037;-28
2023/10/09 07:30:58;;;;;;;7.13;3.03;;;;;;;17.02;98.80;102082.59;4977407;28;99197;-28
2023/10/09 07:38:11;;;;;;;7.82;2.92;;;;;;;17.02;98.36;102061.59;4976276;28;97903;-28
2023/10/09 07:40:56;;;;;;;5.15;2.40;;;;;;;17.14;98.48;102079.03;4975708;28;100887;-28
2023/10/09 07:49:08;;;;;;;7.60;2.63;;;;;;;17.22;97.93;102083.97;4976153;28;97039;-28
2023/10/09 07:51:37;;;;;;;5.10;2.40;;;;;;;17.20;98.81;102065.78;4974694;28;100977;-28
2023/10/09 07:54:08;;;;;;;7.05;2.85;;;;;;;17.22;98.49;102059.34;4974337;28;96705;-28
2023/10/09 07:56:41;;;;;;;5.82;2.35;;;;;;;17.31;98.08;102070.50;4974655;28;96703;-29
2023/10/09 07:59:12;;;;;;;6.28;2.85;;;;;;;17.29;97.80;102058.78;4974397;28;101247;-27
2023/10/09 08:01:52;;;;;;;7.38;2.95;;;;;;;17.35;98.13;102069.31;4975833;28;97318;-29
2023/10/09 08:04:20;;;;;;;7.78;2.95;;;;;;;17.43;97.28;102074.25;4974408;28;96665;-28
2023/10/09 08:06:47;;;;;;;5.65;2.55;;;;;;;17.44;96.90;102058.69;4974563;28;96908;-28
2023/10/09 08:17:05;;;;;;;9.27;2.70;;;;;;;17.83;96.45;102071.41;4973829;28;96550;-28
2023/10/09 08:19:34;;;;;;;6.57;2.40;;;;;;;17.85;95.60;102074.91;4973481;28;101506;-28
2023/10/09 08:24:52;;;;;;;7.60;2.70;;;;;;;17.98;95.63;102083.13;4975986;28;96813;-27
2023/10/09 08:32:40;;;;;;;5.35;2.00;;;;;;;18.11;94.84;102127.84;4975482;28;97003;-28
2023/10/09 08:35:29;;;;;;;5.78;2.58;;;;;;;18.16;93.88;102116.53;4975183;28;96739;-28
2023/10/09 08:37:52;;;;;;;4.95;2.50;;;;;;;18.22;93.92;102136.16;4975641;28;96845;-28
2023/10/09 08:40:21;;;;;;;6.85;2.92;;;;;;;18.22;93.95;102119.72;4973718;28;101282;-28
2023/10/09 08:42:52;;;;;;;6.72;2.60;;;;;;;18.26;93.92;102125.84;4973668;28;101135;-28
2023/10/09 08:45:27;;;;;;;7.25;3.00;;;;;;;18.36;93.38;102137.03;4932130;28;1165456;-28
2023/10/09 08:47:56;;;;;;;6.38;2.67;;;;;;;18.40;93.64;102133.94;4975036;28;96855;-28
2023/10/09 08:50:22;;;;;;;7.88;2.72;;;;;;;18.45;93.22;102129.00;4974576;28;101580;-27
2023/10/09 08:52:49;;;;;;;8.30;2.65;;;;;;;18.49;93.01;102136.97;4974603;28;100717;-28
2023/10/09 08:55:17;;;;;;;6.25;3.13;;;;;;;18.56;92.67;102149.25;4974898;28;96791;-28
2023/10/09 08:57:46;;;;;;;6.28;2.35;;;;;;;18.62;92.50;102157.03;4974860;28;96696;-27
2023/10/09 09:00:23;;;;;;;4.47;2.58;;;;;;;18.67;92.28;102180.41;4975631;28;99651;-28
2023/10/09 09:02:50;;;;;;;7.38;2.85;;;;;;;18.71;91.33;102171.91;4974965;28;101398;-28
2023/10/09 09:05:23;;;;;;;5.63;2.35;;;;;;;18.74;91.48;102164.34;4976332;28;96707;-28
2023/10/09 09:07:49;;;;;;;5.82;2.58;;;;;;;18.78;90.36;102173.25;4974833;28;96784;-28
2023/10/09 09:10:17;;;;;;;5.50;2.42;;;;;;;18.81;90.42;102170.28;4975140;28;99615;-28
2023/10/09 09:12:47;;;;;;;8.10;2.72;;;;;;;18.87;90.06;102183.53;5006803;28;97882;-28
2023/10/09 09:15:20;;;;;;;7.80;2.70;;;;;;;18.89;90.04;102181.56;4973655;28;96656;-28
2023/10/09 09:17:49;;;;;;;6.40;2.72;;;;;;;18.93;89.80;102172.09;4975868;28;96967;-28
2023/10/09 09:20:34;;;;;;;6.10;2.53;;;;;;;18.99;89.28;102174.38;4974293;28;100958;-28
2023/10/09 09:23:04;;;;;;;6.60;2.63;;;;;;;19.03;89.50;102178.66;4975502;28;99379;-28
2023/10/09 09:25:44;;;;;;;4.97;2.65;;;;;;;19.01;89.17;102171.50;4974523;28;96681;-28
2023/10/09 09:28:21;;;;;;;9.05;2.60;;;;;;;19.08;89.47;102179.16;4974839;28;96819;-28
2023/10/09 09:30:50;;;;;;;7.65;2.80;;;;;;;19.15;89.48;102179.56;4974028;28;101727;-28
2023/10/09 09:33:27;;;;;;;5.93;2.65;;;;;;;19.24;89.05;102181.63;4973729;28;100882;-28
2023/10/09 09:36:06;;;;;;;5.40;2.55;;;;;;;19.29;88.73;102173.91;4975520;28;96653;-29
2023/10/09 09:38:47;;;;;;;8.63;2.45;;;;;;;19.38;88.32;102168.66;4976086;28;96586;-29
2023/10/09 09:41:23;;;;;;;7.03;2.30;;;;;;;19.41;88.28;102172.06;4973988;28;101208;-28
2023/10/09 09:44:00;;;;;;;13.15;3.00;;;;;;;19.45;87.45;102170.84;4974546;28;99285;-27
2023/10/09 09:46:36;;;;;;;7.97;2.80;;;;;;;19.51;87.50;102183.22;4984315;28;96848;-28
2023/10/09 09:49:16;;;;;;;5.55;2.88;;;;;;;19.59;87.40;102179.84;4995256;28;96643;-30
2023/10/09 09:51:46;;;;;;;8.32;3.03;;;;;;;19.63;86.75;102173.13;4993667;28;100908;-28
2023/10/09 09:54:15;;;;;;;7.15;2.58;;;;;;;19.66;86.68;102172.88;4993797;28;100849;-28
2023/10/09 09:56:54;;;;;;;9.82;3.20;;;;;;;19.75;86.42;102174.06;4994042;28;96705;-28
2023/10/09 09:59:27;;;;;;;6.75;2.08;;;;;;;19.74;84.74;102167.69;4993960;28;96634;-28
2023/10/09 10:02:06;;;;;;;4.68;2.30;;;;;;;19.73;84.98;102166.84;4993109;28;101526;-28
2023/10/09 10:04:35;;;;;;;4.88;2.53;;;;;;;19.75;84.26;102179.56;4994570;28;99730;-27
2023/10/09 10:07:09;;;;;;;6.45;2.45;;;;;;;19.73;84.40;102179.69;4994985;28;96556;-28
2023/10/09 10:09:39;;;;;;;6.13;2.17;;;;;;;19.72;83.31;102172.44;4995437;28;96560;-28
2023/10/09 10:12:11;;;;;;;5.15;2.50;;;;;;;19.72;82.20;102166.94;4994818;28;97527;-27
2023/10/09 10:15:37;;;;;;;;;;;;;;;19.72;83.73;102172.44;4994162;28;97906;-28
2023/10/09 10:17:59;;;;;;;5.38;2.05;;;;;;;19.74;83.21;102178.69;4991619;28;96641;-27
2023/10/09 10:22:51;;;;;;;4.68;2.30;;;;;;;19.76;83.75;102179.47;4993429;28;98043;-28
2023/10/09 10:25:32;;;;;;;4.95;2.15;;;;;;;19.81;82.68;102181.84;4993032;28;100708;-30
2023/10/09 10:28:38;;;;;;;5.17;2.60;;;;;;;19.83;83.21;102180.72;4992834;28;96593;-27
2023/10/09 10:31:07;;;;;;;8.20;2.22;;;;;;;19.92;82.96;102181.84;4995088;28;96608;-27
2023/10/09 10:33:58;;;;;;;5.97;2.60;;;;;;;20.03;82.37;102181.88;4994271;28;98992;-27
2023/10/09 10:36:26;;;;;;;3.53;1.92;;;;;;;20.12;81.83;102183.88;4989213;28;99487;-28
2023/10/09 10:39:11;;;;;;;5.72;2.50;;;;;;;20.31;81.77;102182.38;4994643;28;96495;-28
2023/10/09 10:41:50;;;;;;;4.50;1.90;;;;;;;20.49;80.47;102174.47;4993187;28;96864;-27
2023/10/09 10:44:42;;;;;;;5.32;2.20;;;;;;;20.63;80.14;102182.50;4994065;28;97960;-27
2023/10/09 10:47:22;;;;;;;;;;;;;;;20.78;79.09;102184.00;4995043;28;99239;-27
2023/10/09 10:49:50;;;;;;;5.32;2.42;;;;;;;20.88;79.34;102186.84;4993308;28;96786;-28
2023/10/09 10:52:35;;;;;;;4.85;2.40;;;;;;;20.84;79.10;102184.47;4994499;28;96778;-28
2023/10/09 10:58:13;;;;;;;6.95;1.85;;;;;;;20.95;77.89;102198.19;4992882;28;98083;-28
2023/10/09 11:03:29;;;;;;;5.75;2.50;;;;;;;20.97;78.11;102207.22;4992144;28;96655;-27
2023/10/09 11:05:55;;;;;;;5.78;2.35;;;;;;;20.86;77.90;102190.75;4994253;28;97751;-27
2023/10/09 11:08:31;;;;;;;4.40;2.15;;;;;;;20.85;79.08;102205.50;4992669;28;101345;-27
2023/10/09 11:11:15;;;;;;;5.88;2.20;;;;;;;20.77;78.69;102201.50;4994499;28;96584;-28
2023/10/09 11:13:56;;;;;;;5.13;1.88;;;;;;;20.73;79.09;102190.88;4994578;28;96755;-28
2023/10/09 11:16:41;;;;;;;3.85;2.33;;;;;;;20.85;79.02;102202.75;4992504;28;101170;-27
2023/10/09 11:19:28;;;;;;;7.05;2.30;;;;;;;20.93;78.70;102192.84;4993884;28;99191;-28
2023/10/09 11:22:28;;;;;;;3.55;2.00;;;;;;;20.99;78.82;102197.81;4993555;28;96626;-28
2023/10/09 11:24:43;;;;;;;9.65;2.90;;;;;;;20.98;77.99;102189.72;4993526;28;96698;-28
2023/10/09 11:27:18;;;;;;;6.00;2.65;;;;;;;21.05;78.87;102187.31;4992352;28;101216;-27
2023/10/09 11:32:24;;;;;;;5.47;2.35;;;;;;;21.10;78.00;102160.25;4991445;28;96649;-27
2023/10/09 11:34:53;;;;;;;8.90;2.67;;;;;;;21.27;77.50;102162.41;4993882;28;96868;-29
2023/10/09 11:39:56;;;;;;;4.68;2.10;;;;;;;21.58;76.81;102165.31;4996784;28;97829;-28
2023/10/09 11:42:38;;;;;;;5.88;2.33;;;;;;;21.57;76.12;102166.28;4995890;28;96642;-28
2023/10/09 11:45:19;;;;;;;4.47;2.33;;;;;;;21.58;75.97;102162.53;4995005;28;96951;-29
2023/10/09 11:48:00;;;;;;;4.88;2.13;;;;;;;21.56;74.82;102175.59;4995104;28;101062;-27
2023/10/09 11:51:18;;;;;;;6.43;2.23;;;;;;;21.50;74.80;102162.31;4995517;28;101274;-28
2023/10/09 11:53:45;;;;;;;3.72;1.80;;;;;;;21.37;75.10;102162.50;4996908;28;96666;-28
2023/10/09 11:56:14;;;;;;;4.38;2.00;;;;;;;21.30;77.12;102170.41;4997124;28;96826;-27
2023/10/09 11:58:40;;;;;;;5.82;2.10;;;;;;;21.16;77.16;102185.38;4994948;28;100843;-27
2023/10/09 12:01:20;;;;;;;4.10;2.10;;;;;;;21.02;76.94;102165.50;4978025;28;101175;-28
2023/10/09 12:03:53;;;;;;;3.33;2.10;;;;;;;20.88;77.20;102159.31;4977104;28;96620;-27
2023/10/09 12:06:29;;;;;;;4.78;2.63;;;;;;;20.77;77.93;102167.59;4977908;28;96558;-27
2023/10/09 12:08:58;;;;;;;5.43;2.35;;;;;;;20.71;78.18;102177.25;4976837;28;97665;-28
2023/10/09 12:11:28;;;;;;;7.32;2.30;;;;;;;20.72;78.64;102175.38;4975234;28;100782;-27
2023/10/09 12:13:57;;;;;;;7.15;2.83;;;;;;;20.65;78.76;102172.25;4975083;28;96652;-27
2023/10/09 12:16:27;;;;;;;6.35;2.33;;;;;;;20.66;79.14;102170.34;4975577;28;96902;-28
2023/10/09 12:18:56;;;;;;;4.45;1.98;;;;;;;20.59;78.63;102167.22;4975289;28;102349;-28
2023/10/09 12:21:23;;;;;;;5.25;2.17;;;;;;;20.58;78.16;102165.50;4975105;28;100823;-28
2023/10/09 12:23:48;;;;;;;4.35;1.90;;;;;;;20.57;77.76;102158.25;4976902;28;96521;-28
2023/10/09 12:26:16;;;;;;;9.00;2.17;;;;;;;20.56;78.19;102156.50;4976789;28;96735;-28
2023/10/09 12:28:45;;;;;;;7.00;1.95;;;;;;;20.59;77.86;102153.47;4976385;28;98067;-27
2023/10/09 12:31:15;;;;;;;4.57;1.92;;;;;;;20.57;78.10;102152.75;4975416;28;100787;-28
2023/10/09 12:33:41;;;;;;;8.10;2.60;;;;;;;20.62;77.88;102150.47;4975308;28;96754;-27
2023/10/09 12:36:17;;;;;;;5.55;2.55;;;;;;;20.57;77.65;102148.13;4975446;28;97316;-28
2023/10/09 12:38:46;;;;;;;5.47;1.80;;;;;;;20.62;78.06;102161.50;4974409;28;101126;-29
2023/10/09 12:41:25;;;;;;;4.88;2.40;;;;;;;20.58;77.20;102160.84;4974829;28;101314;-27
2023/10/09 12:43:51;;;;;;;8.18;2.35;;;;;;;20.62;78.14;102167.00;4974875;28;96658;-28
2023/10/09 12:46:17;;;;;;;9.35;2.10;;;;;;;20.62;77.97;102166.09;4974801;28;96869;-28
2023/10/09 12:48:48;;;;;;;7.30;2.03;;;;;;;20.62;78.50;102167.00;4974007;28;100647;-28
2023/10/09 12:51:17;;;;;;;5.72;2.25;;;;;;;20.53;78.14;102162.22;4975864;28;97358;-28
2023/10/09 12:53:43;;;;;;;6.38;2.00;;;;;;;20.54;78.11;102163.97;4975099;28;96673;-28
2023/10/09 12:56:09;;;;;;;3.75;2.05;;;;;;;20.48;78.66;102165.34;4975246;28;96941;-27
2023/10/09 12:58:37;;;;;;;6.82;2.05;;;;;;;20.48;78.31;102176.38;4976040;28;97861;-27
2023/10/09 13:01:09;;;;;;;4.07;2.10;;;;;;;20.43;78.15;102175.00;4974633;28;101783;-28
2023/10/09 13:03:38;;;;;;;6.05;2.38;;;;;;;20.37;78.48;102165.34;4974367;28;96655;-28
2023/10/09 13:06:07;;;;;;;5.53;2.40;;;;;;;20.36;78.56;102171.88;4974736;28;96789;-28
2023/10/09 13:08:35;;;;;;;4.65;2.08;;;;;;;20.29;78.37;102168.75;4974421;28;101667;-27
2023/10/09 13:11:12;;;;;;;3.95;2.20;;;;;;;20.17;78.66;102158.75;4974376;28;101046;-27
2023/10/09 13:13:43;;;;;;;9.82;2.40;;;;;;;20.26;78.72;102158.00;4974687;28;96599;-28
2023/10/09 13:16:23;;;;;;;6.53;2.60;;;;;;;20.32;78.81;102175.88;4976236;28;96581;-28
2023/10/09 13:18:49;;;;;;;9.43;2.75;;;;;;;20.35;78.58;102171.00;4975698;28;99772;-28
2023/10/09 13:21:19;;;;;;;7.90;2.58;;;;;;;20.32;78.66;102179.50;4974569;28;101018;-28
2023/10/09 13:23:49;;;;;;;5.45;2.42;;;;;;;20.32;78.84;102178.63;4975743;28;96573;-27
2023/10/09 13:26:18;;;;;;;6.20;2.45;;;;;;;20.30;78.89;102164.09;4974614;28;96853;-28
2023/10/09 13:28:54;;;;;;;7.55;2.80;;;;;;;20.31;78.81;102177.75;4973326;28;101571;-28
2023/10/09 13:31:20;;;;;;;6.93;2.42;;;;;;;20.21;78.86;102164.84;4975816;28;97814;-28
2023/10/09 13:33:47;;;;;;;8.85;2.60;;;;;;;20.32;79.17;102175.88;4975761;28;96622;-28
2023/10/09 13:36:26;;;;;;;6.55;2.17;;;;;;;20.36;79.07;102166.38;4975710;28;96841;-28
2023/10/09 13:38:55;;;;;;;5.32;2.20;;;;;;;20.40;78.59;102148.59;4975356;28;99338;-29
2023/10/09 13:41:21;;;;;;;5.53;2.25;;;;;;;20.50;78.38;102151.47;4973792;28;101342;-30
2023/10/09 13:43:51;;;;;;;6.40;2.45;;;;;;;20.55;78.52;102151.97;4973997;28;96628;-27
2023/10/09 13:46:17;;;;;;;5.05;2.38;;;;;;;20.58;78.43;102154.50;4975594;28;96916;-27
2023/10/09 13:48:45;;;;;;;6.55;2.42;;;;;;;20.63;78.13;102160.47;4973809;28;101493;-28
2023/10/09 13:51:17;;;;;;;5.65;2.20;;;;;;;20.64;78.00;102161.34;4973735;28;100802;-28
2023/10/09 13:53:46;;;;;;;5.13;2.13;;;;;;;20.68;78.13;102152.72;4974746;28;96639;-28
2023/10/09 13:56:20;;;;;;;5.95;2.55;;;;;;;20.68;77.82;102154.59;4975304;28;96846;-28
2023/10/09 13:58:54;;;;;;;10.18;2.47;;;;;;;20.69;77.79;102148.97;4975247;28;98140;-27
2023/10/09 14:01:27;;;;;;;5.22;2.33;;;;;;;20.71;78.03;102149.72;4974931;28;98397;-27
2023/10/09 14:03:54;;;;;;;8.68;2.40;;;;;;;20.74;78.22;102148.59;4974115;28;96858;-27
2023/10/09 14:06:30;;;;;;;4.68;2.13;;;;;;;20.71;78.10;102162.59;4973783;28;96881;-27
2023/10/09 14:08:56;;;;;;;7.82;2.38;;;;;;;20.67;78.50;102159.22;4973504;28;101225;-29
2023/10/09 14:11:21;;;;;;;4.93;2.40;;;;;;;20.63;78.42;102160.47;4973901;28;101289;-27
2023/10/09 14:13:48;;;;;;;4.75;2.20;;;;;;;20.62;78.73;102161.50;4975530;28;96469;-28
2023/10/09 14:16:23;;;;;;;7.75;2.72;;;;;;;20.49;78.79;102150.56;4975124;28;96845;-28
2023/10/09 14:18:56;;;;;;;7.60;2.25;;;;;;;20.46;79.22;102155.47;4974140;28;99699;-28
2023/10/09 14:21:25;;;;;;;7.72;2.85;;;;;;;20.41;79.13;102152.22;4973431;28;100932;-27
2023/10/09 14:23:55;;;;;;;7.15;2.25;;;;;;;20.37;79.50;102152.47;4973701;28;96573;-28
2023/10/09 14:26:22;;;;;;;10.50;2.67;;;;;;;20.33;79.97;102141.84;4973006;28;96921;-28
2023/10/09 14:28:48;;;;;;;12.13;2.85;;;;;;;20.28;80.01;102141.34;4974588;28;99217;-27
2023/10/09 14:31:14;;;;;;;7.63;2.40;;;;;;;20.20;80.20;102141.97;4973187;28;101296;-27
2023/10/09 14:33:40;;;;;;;9.07;2.67;;;;;;;20.22;80.18;102150.97;4974799;28;96591;-28
2023/10/09 14:36:07;;;;;;;9.52;2.72;;;;;;;20.19;80.31;102150.34;4975233;28;96855;-27
2023/10/09 14:38:38;;;;;;;5.38;2.20;;;;;;;20.17;80.25;102150.50;4973158;28;101169;-27